Uruapan Gen Rayon, Mexico

11:44 AM CST on January 26, 2015 (GMT -0600)
Gen Ignacio Lopez Rayon | Change Station
CLOSE
Current Station
Airport
Location: Uruapan Gen Rayon,
Elevation: 5226 ft
Nearby Weather Stations

Elev 5226 ft 19.40 °N, 102.04 °W | Updated 1 hour ago

Scattered Clouds
Scattered Clouds
70 °F
Feels Like 70 °F
N
0
Wind Variable Wind from North

Today
High -- | Low -- °F
--% Chance of Precip.
Yesterday
High -- | Low -- °F
Precip. -- in
7:24 AM 6:37 PM
Waxing Crescent, 45% visible
Pressure 30.28 in
Visibility 12.0 miles
Clouds Scattered Clouds 26000 ft
Dew Point 52 °F
Humidity 53%
Rainfall 0.00 in
Snow Depth Not available.
UV 4 out of 12
Pollen Not available.
Air Quality Not available.
Flu Activity Not available.
METAR MMPN 261641Z 00000KT 12SM SCT260 21/11 A3028 RMK 8/001 HZY CU

More Conditions Fewer Conditions

Pressure 30.28 in
Visibility 12.0 miles
Clouds Scattered Clouds 26000 ft
Dew Point 52 °F
Humidity 53%
Rainfall 0.00 in
Snow Depth Not available.
UV 4 out of 12
Pollen Not available.
Air Quality Not available.
Flu Activity Not available.
METAR MMPN 261641Z 00000KT 12SM SCT260 21/11 A3028 RMK 8/001 HZY CU

More Conditions Fewer Conditions

10-Day Weather Forecast

Almanac

Astronomy

Jan. 26, 2015 Rise Set
Actual Time
Civil Twilight
Nautical Twilight
Astronomical Twilight
Moon
Length of Visible Light
Length of Day
Tomorrow will be .
, % of the Moon is Illuminated

Today's Extremes

Country Highs Country Lows

Community

WunderPhotos

Upload Photos

1,790,301 photos uploaded!

WunderBlogs® & News

Nearby

Air Quality

  Air Quality AQ Index Pollutant
Not available.

Snow Depth

Station Depth Elevation

Earthquake Activity

City Distance Mag. Time & Date
Minimum magnitude displayed is 2.5.

Coastal Water Temperatures

Place Temperature

Nearby Weather Stations